Time,TemperatureF,DewpointF,PressureIn,WindDirection,WindDirectionDegrees,WindSpeedMPH,WindSpeedGustMPH,Humidity,HourlyPrecipIn,Conditions,Clouds,dailyrainin,SoftwareType,DateUTC
2013-06-24 00:02:00,60.0,56.0,29.72,West,277,3.0,7.0,88,0.00,,,0.36,,2013-06-24 07:02:00,
2013-06-24 00:12:00,60.0,56.0,29.72,West,277,2.0,6.0,87,0.00,,,0.36,,2013-06-24 07:12:00,
2013-06-24 00:24:00,59.0,55.0,29.72,West,275,4.0,7.0,87,0.00,,,0.36,,2013-06-24 07:24:00,
2013-06-24 00:33:00,59.0,55.0,29.73,WNW,285,3.0,5.0,86,0.00,,,0.36,,2013-06-24 07:33:00,
2013-06-24 00:53:00,59.0,54.0,29.73,WNW,290,2.0,6.0,85,0.00,,,0.36,,2013-06-24 07:53:00,
2013-06-24 01:01:00,58.0,54.0,29.73,West,280,5.0,7.0,85,0.00,,,0.36,,2013-06-24 08:01:00,
2013-06-24 01:52:00,57.0,52.0,29.75,ENE,73,0.0,0.0,84,0.00,,,0.36,,2013-06-24 08:52:00,
2013-06-24 02:22:00,56.0,52.0,29.73,NNW,339,0.0,0.0,86,0.00,,,0.36,,2013-06-24 09:22:00,
2013-06-24 02:33:00,56.0,52.0,29.73,North,349,0.0,0.0,86,0.00,,,0.36,,2013-06-24 09:33:00,
2013-06-24 02:43:00,56.0,52.0,29.73,NE,48,0.0,0.0,86,0.00,,,0.36,,2013-06-24 09:43:00,
2013-06-24 02:53:00,56.0,52.0,29.73,SSE,155,0.0,0.0,87,0.00,,,0.36,,2013-06-24 09:53:00,
2013-06-24 03:01:00,55.0,51.0,29.73,South,175,0.0,0.0,87,0.00,,,0.36,,2013-06-24 10:01:00,
2013-06-24 03:11:00,56.0,52.0,29.75,North,4,0.0,0.0,87,0.00,,,0.36,,2013-06-24 10:11:00,
2013-06-24 03:22:00,56.0,52.0,29.73,ENE,64,0.0,0.0,87,0.00,,,0.36,,2013-06-24 10:22:00,
2013-06-24 03:44:00,55.0,52.0,29.73,SSE,166,0.0,2.0,88,0.00,,,0.36,,2013-06-24 10:44:00,
2013-06-24 03:53:00,55.0,52.0,29.73,NW,305,0.0,2.0,88,0.00,,,0.36,,2013-06-24 10:53:00,
2013-06-24 04:02:00,55.0,52.0,29.73,NNW,342,0.0,0.0,88,0.00,,,0.36,,2013-06-24 11:02:00,
2013-06-24 04:12:00,55.0,52.0,29.73,ENE,66,0.0,1.0,88,0.00,,,0.36,,2013-06-24 11:12:00,
2013-06-24 04:23:00,55.0,51.0,29.73,East,92,0.0,1.0,87,0.00,,,0.36,,2013-06-24 11:23:00,
2013-06-24 04:33:00,55.0,51.0,29.73,SSW,197,0.0,0.0,87,0.00,,,0.35,,2013-06-24 11:33:00,
2013-06-24 04:43:00,55.0,52.0,29.75,East,87,0.0,0.0,88,0.00,,,0.35,,2013-06-24 11:43:00,
2013-06-24 04:52:00,54.0,51.0,29.73,East,100,0.0,0.0,88,0.00,,,0.35,,2013-06-24 11:52:00,
2013-06-24 05:02:00,54.0,51.0,29.73,ESE,118,0.0,0.0,88,0.00,,,0.35,,2013-06-24 12:02:00,
2013-06-24 05:11:00,54.0,51.0,29.73,SE,130,0.0,0.0,88,0.00,,,0.35,,2013-06-24 12:11:00,
2013-06-24 06:01:00,54.0,51.0,29.73,SE,131,0.0,0.0,89,0.00,,,0.34,,2013-06-24 13:01:00,
2013-06-24 06:42:00,54.0,51.0,29.75,North,3,0.0,0.0,89,0.00,,,0.34,,2013-06-24 13:42:00,
2013-06-24 06:53:00,54.0,51.0,29.73,North,11,0.0,0.0,89,0.00,,,0.34,,2013-06-24 13:53:00,
2013-06-24 07:11:00,54.0,51.0,29.75,East,87,0.0,2.0,89,0.00,,,0.34,,2013-06-24 14:11:00,
2013-06-24 07:43:00,55.0,52.0,29.75,North,7,0.0,0.0,88,0.01,,,0.35,,2013-06-24 14:43:00,
2013-06-24 07:53:00,55.0,52.0,29.75,SSE,153,0.0,0.0,88,0.01,,,0.35,,2013-06-24 14:53:00,
2013-06-24 08:34:00,55.0,52.0,29.75,WNW,297,0.0,0.0,88,0.03,,,0.38,,2013-06-24 15:34:00,
2013-06-24 08:43:00,55.0,51.0,29.75,NE,51,0.0,0.0,86,0.02,,,0.37,,2013-06-24 15:43:00,
2013-06-24 08:52:00,56.0,52.0,29.75,East,88,0.0,0.0,87,0.03,,,0.38,,2013-06-24 15:52:00,
2013-06-24 09:02:00,56.0,52.0,29.75,NE,48,1.0,3.0,86,0.03,,,0.38,,2013-06-24 16:02:00,
2013-06-24 09:53:00,58.0,53.0,29.75,SE,142,0.0,2.0,84,0.01,,,0.39,,2013-06-24 16:53:00,
2013-06-24 10:02:00,58.0,52.0,29.75,ENE,63,1.0,2.0,80,0.01,,,0.39,,2013-06-24 17:02:00,
2013-06-24 10:11:00,58.0,51.0,29.75,NE,52,1.0,2.0,78,0.01,,,0.39,,2013-06-24 17:11:00,
2013-06-24 10:22:00,59.0,52.0,29.75,NNE,27,0.0,3.0,77,0.00,,,0.39,,2013-06-24 17:22:00,
2013-06-24 10:33:00,59.0,51.0,29.75,NE,47,1.0,1.0,75,0.00,,,0.39,,2013-06-24 17:33:00,
2013-06-24 11:01:00,61.0,52.0,29.75,West,278,1.0,2.0,72,0.00,,,0.39,,2013-06-24 18:01:00,
2013-06-24 11:22:00,61.0,51.0,29.73,North,355,0.0,3.0,69,0.00,,,0.39,,2013-06-24 18:22:00,
2013-06-24 11:43:00,59.0,50.0,29.75,South,172,1.0,3.0,73,0.02,,,0.41,,2013-06-24 18:43:00,
2013-06-24 11:53:00,59.0,51.0,29.75,SE,139,4.0,7.0,74,0.02,,,0.41,,2013-06-24 18:53:00,
2013-06-24 12:02:00,59.0,51.0,29.75,SE,128,2.0,4.0,76,0.02,,,0.41,,2013-06-24 19:02:00,
2013-06-24 12:12:00,61.0,52.0,29.75,West,264,1.0,2.0,73,0.02,,,0.41,,2013-06-24 19:12:00,
2013-06-24 12:33:00,64.0,53.0,29.73,ESE,114,2.0,3.0,67,0.02,,,0.41,,2013-06-24 19:33:00,
2013-06-24 12:42:00,64.0,51.0,29.73,North,354,1.0,3.0,63,0.01,,,0.41,,2013-06-24 19:42:00,
2013-06-24 12:53:00,64.0,51.0,29.73,SSE,154,2.0,3.0,63,0.01,,,0.41,,2013-06-24 19:53:00,
2013-06-24 13:02:00,66.0,51.0,29.73,West,272,1.0,3.0,59,0.00,,,0.41,,2013-06-24 20:02:00,
2013-06-24 13:11:00,66.0,51.0,29.73,ESE,121,2.0,4.0,58,0.00,,,0.41,,2013-06-24 20:11:00,
2013-06-24 13:42:00,65.0,50.0,29.73,South,188,3.0,7.0,58,0.00,,,0.41,,2013-06-24 20:42:00,
2013-06-24 14:43:00,64.0,50.0,29.73,WNW,297,1.0,5.0,60,0.00,,,0.41,,2013-06-24 21:43:00,
2013-06-24 15:01:00,65.0,50.0,29.73,NNW,329,1.0,6.0,58,0.00,,,0.41,,2013-06-24 22:01:00,
2013-06-24 15:43:00,66.0,50.0,29.73,NW,324,3.0,5.0,57,0.00,,,0.41,,2013-06-24 22:43:00,
2013-06-24 15:53:00,65.0,51.0,29.73,NW,312,3.0,7.0,60,0.00,,,0.41,,2013-06-24 22:53:00,
2013-06-24 16:02:00,64.0,52.0,29.73,West,279,4.0,9.0,64,0.00,,,0.41,,2013-06-24 23:02:00,
2013-06-24 16:43:00,65.0,52.0,29.72,NNE,33,2.0,3.0,62,0.00,,,0.40,,2013-06-24 23:43:00,
2013-06-24 16:52:00,65.0,50.0,29.72,ESE,104,2.0,3.0,58,0.00,,,0.40,,2013-06-24 23:52:00,
2013-06-24 17:32:00,65.0,50.0,29.72,NNW,334,0.0,2.0,59,0.00,,,0.40,,2013-06-25 00:32:00,
2013-06-24 17:43:00,65.0,49.0,29.72,NNW,339,1.0,2.0,57,0.00,,,0.31,,2013-06-25 00:43:00,
2013-06-24 17:52:00,65.0,50.0,29.72,NNW,334,2.0,3.0,58,0.00,,,0.31,,2013-06-25 00:52:00,
2013-06-24 18:33:00,64.0,50.0,29.72,ENE,70,1.0,2.0,61,0.00,,,0.29,,2013-06-25 01:33:00,
2013-06-24 18:43:00,64.0,51.0,29.72,East,89,0.0,2.0,63,0.00,,,0.29,,2013-06-25 01:43:00,
2013-06-24 18:52:00,64.0,53.0,29.72,South,191,0.0,0.0,67,0.00,,,0.29,,2013-06-25 01:52:00,
2013-06-24 19:02:00,63.0,54.0,29.72,South,176,0.0,0.0,72,0.00,,,0.29,,2013-06-25 02:02:00,
2013-06-24 19:11:00,62.0,53.0,29.72,SE,145,0.0,0.0,73,0.00,,,0.29,,2013-06-25 02:11:00,
2013-06-24 19:33:00,61.0,54.0,29.73,ENE,78,1.0,2.0,78,0.00,,,0.29,,2013-06-25 02:33:00,
2013-06-24 19:43:00,60.0,53.0,29.72,SSW,197,0.0,2.0,79,0.00,,,0.28,,2013-06-25 02:43:00,
2013-06-24 19:53:00,60.0,53.0,29.72,South,181,0.0,1.0,79,0.01,,,0.29,,2013-06-25 02:53:00,
2013-06-24 20:01:00,59.0,53.0,29.73,East,90,0.0,1.0,80,0.02,,,0.29,,2013-06-25 03:01:00,
2013-06-24 20:11:00,59.0,53.0,29.73,ENE,68,1.0,2.0,81,0.02,,,0.29,,2013-06-25 03:11:00,
2013-06-24 20:52:00,58.0,54.0,29.72,NE,54,1.0,2.0,85,0.01,,,0.29,,2013-06-25 03:52:00,
2013-06-24 21:01:00,58.0,54.0,29.72,North,353,0.0,1.0,86,0.01,,,0.29,,2013-06-25 04:01:00,
2013-06-24 21:11:00,57.0,53.0,29.72,NE,45,0.0,0.0,86,0.01,,,0.29,,2013-06-25 04:11:00,
2013-06-24 21:22:00,57.0,53.0,29.72,ENE,71,0.0,0.0,86,0.01,,,0.29,,2013-06-25 04:22:00,
2013-06-24 21:33:00,57.0,53.0,29.72,North,9,0.0,0.0,86,0.01,,,0.29,,2013-06-25 04:33:00,
2013-06-24 21:42:00,57.0,53.0,29.72,NNE,31,0.0,1.0,87,0.00,,,0.28,,2013-06-25 04:42:00,
2013-06-24 21:52:00,57.0,53.0,29.72,North,355,0.0,1.0,87,0.00,,,0.28,,2013-06-25 04:52:00,
2013-06-24 22:01:00,57.0,53.0,29.72,NE,56,1.0,1.0,87,0.00,,,0.25,,2013-06-25 05:01:00,
2013-06-24 22:11:00,57.0,53.0,29.72,NE,39,1.0,2.0,87,0.00,,,0.15,,2013-06-25 05:11:00,
2013-06-24 22:32:00,56.0,52.0,29.72,SSE,155,0.0,1.0,87,0.00,,,0.11,,2013-06-25 05:32:00,
2013-06-24 22:44:00,55.0,52.0,29.72,West,268,0.0,1.0,88,0.00,,,0.11,,2013-06-25 05:44:00,
2013-06-24 23:01:00,55.0,52.0,29.72,ESE,108,0.0,0.0,88,0.00,,,0.11,,2013-06-25 06:01:00,
2013-06-24 23:11:00,55.0,52.0,29.72,ENE,68,0.0,0.0,88,0.00,,,0.11,,2013-06-25 06:11:00,
2013-06-24 23:33:00,55.0,52.0,29.72,West,275,1.0,1.0,88,0.00,,,0.11,,2013-06-25 06:33:00,
2013-06-24 23:43:00,56.0,53.0,29.72,WNW,300,0.0,2.0,89,0.00,,,0.11,,2013-06-25 06:43:00,